createdAt,value
2024-04-18T00:00:13.207Z,48.00
2024-04-18T00:02:43.623Z,48.10
2024-04-18T00:05:34.084Z,48.20
2024-04-18T00:08:01.892Z,48.00
2024-04-18T00:10:32.414Z,48.10
2024-04-18T00:13:00.286Z,48.10
2024-04-18T00:15:30.792Z,48.10
2024-04-18T00:18:01.408Z,48.00
2024-04-18T00:20:32.046Z,48.10
2024-04-18T00:23:18.779Z,48.00
2024-04-18T00:26:09.121Z,48.00
2024-04-18T00:28:56.951Z,47.90
2024-04-18T00:31:27.339Z,48.00
2024-04-18T00:34:00.719Z,48.10
2024-04-18T00:36:48.215Z,48.40
2024-04-18T00:39:24.723Z,48.40
2024-04-18T00:42:04.260Z,49.10
2024-04-18T00:44:32.237Z,48.70
2024-04-18T00:47:19.970Z,48.80
2024-04-18T00:50:11.008Z,49.00
2024-04-18T00:52:45.763Z,49.30
2024-04-18T00:55:31.285Z,49.20
2024-04-18T00:58:15.454Z,49.30
2024-04-18T01:00:44.387Z,49.30
2024-04-18T01:03:34.222Z,49.10
2024-04-18T01:06:11.379Z,49.00
2024-04-18T01:09:02.887Z,48.80
2024-04-18T01:11:31.744Z,48.80
2024-04-18T01:14:12.051Z,48.80
2024-04-18T01:16:58.840Z,48.80
2024-04-18T01:19:29.261Z,48.80
2024-04-18T01:22:04.290Z,48.70
2024-04-18T01:24:36.755Z,48.80
2024-04-18T01:27:07.706Z,48.60
2024-04-18T01:29:47.847Z,48.80
2024-04-18T01:32:34.705Z,48.70
2024-04-18T01:35:05.303Z,48.80
2024-04-18T01:37:49.002Z,49.00
2024-04-18T01:40:19.985Z,49.20
2024-04-18T01:43:09.790Z,49.20
2024-04-18T01:46:00.137Z,49.30
2024-04-18T01:48:28.135Z,49.20
2024-04-18T01:51:17.696Z,49.20
2024-04-18T01:53:45.478Z,49.10
2024-04-18T01:56:37.514Z,49.10
2024-04-18T01:59:25.383Z,49.30
2024-04-18T02:01:57.446Z,49.50
2024-04-18T02:04:25.262Z,49.50
2024-04-18T02:06:55.671Z,49.50
2024-04-18T02:09:26.239Z,49.50
2024-04-18T02:11:56.597Z,49.50
2024-04-18T02:14:46.791Z,49.60
2024-04-18T02:17:17.202Z,49.70
2024-04-18T02:20:08.904Z,49.60
2024-04-18T02:22:45.652Z,49.60
2024-04-18T02:25:31.845Z,49.50
2024-04-18T02:28:02.856Z,49.50
2024-04-18T02:30:33.289Z,49.50
2024-04-18T02:33:18.232Z,49.50
2024-04-18T02:35:46.259Z,49.40
2024-04-18T02:38:35.968Z,50.00
2024-04-18T02:41:05.320Z,49.30
2024-04-18T02:43:58.131Z,49.30
2024-04-18T02:46:28.715Z,49.30
2024-04-18T02:49:17.533Z,49.10
2024-04-18T02:51:57.770Z,49.70
2024-04-18T02:54:46.992Z,49.00
2024-04-18T02:57:14.933Z,49.00
2024-04-18T02:59:45.408Z,49.00
2024-04-18T03:02:25.387Z,48.90
2024-04-18T03:05:15.812Z,49.30
2024-04-18T03:07:43.677Z,48.50
2024-04-18T03:10:14.285Z,48.50
2024-04-18T03:13:00.331Z,48.40
2024-04-18T03:15:49.834Z,48.40
2024-04-18T03:18:20.503Z,48.40
2024-04-18T03:20:59.048Z,48.50
2024-04-18T03:23:42.174Z,48.40
2024-04-18T03:26:12.645Z,48.40
2024-04-18T03:28:40.370Z,48.60
2024-04-18T03:31:11.125Z,48.70
2024-04-18T03:33:41.583Z,48.80
2024-04-18T03:36:12.859Z,48.90
2024-04-18T03:38:43.297Z,48.90
2024-04-18T03:41:14.041Z,48.90
2024-04-18T03:44:04.347Z,48.90
2024-04-18T03:46:34.807Z,48.80
2024-04-18T03:49:09.037Z,48.80
2024-04-18T03:51:37.345Z,48.70
2024-04-18T03:54:27.922Z,48.70
2024-04-18T03:57:03.797Z,48.80
2024-04-18T03:59:36.460Z,48.90
2024-04-18T04:02:04.325Z,48.90
2024-04-18T04:04:37.431Z,48.90
2024-04-18T04:07:06.087Z,49.00
2024-04-18T04:09:37.172Z,49.00
2024-04-18T04:12:07.495Z,49.00
2024-04-18T04:14:57.916Z,49.00
2024-04-18T04:17:25.757Z,48.90
2024-04-18T04:20:12.345Z,49.00
2024-04-18T04:22:40.539Z,49.00
2024-04-18T04:25:23.340Z,48.90
2024-04-18T04:27:51.292Z,48.80
2024-04-18T04:30:21.889Z,48.80
2024-04-18T04:32:49.715Z,48.70
2024-04-18T04:35:38.288Z,48.70
2024-04-18T04:38:06.061Z,48.80
2024-04-18T04:40:36.625Z,48.80
2024-04-18T04:43:04.934Z,48.80
2024-04-18T04:45:35.345Z,48.80
2024-04-18T04:48:08.128Z,48.80
2024-04-18T04:51:03.632Z,48.70
2024-04-18T04:53:34.181Z,48.60
2024-04-18T04:56:04.745Z,48.40
2024-04-18T04:58:32.698Z,48.30
2024-04-18T05:01:03.242Z,48.20
2024-04-18T05:03:39.977Z,48.20
2024-04-18T05:06:31.698Z,48.30
2024-04-18T05:09:18.161Z,48.30
2024-04-18T05:11:49.414Z,48.30
2024-04-18T05:14:35.631Z,48.40
2024-04-18T05:17:26.069Z,48.70
2024-04-18T05:20:15.353Z,48.80
2024-04-18T05:22:45.986Z,49.00
2024-04-18T05:25:16.697Z,49.30
2024-04-18T05:27:56.183Z,49.30
2024-04-18T05:30:54.719Z,49.40
2024-04-18T05:33:25.262Z,49.50
2024-04-18T05:35:56.075Z,49.50
2024-04-18T05:38:29.112Z,49.60
2024-04-18T05:40:59.961Z,49.70
2024-04-18T05:43:49.085Z,49.60
2024-04-18T05:46:19.485Z,49.50
2024-04-18T05:48:49.991Z,49.50
2024-04-18T05:51:20.570Z,49.60
2024-04-18T05:54:19.889Z,49.60
2024-04-18T05:57:08.872Z,49.70
2024-04-18T05:59:54.756Z,49.60
2024-04-18T06:02:26.030Z,49.70
2024-04-18T06:04:56.792Z,49.90
2024-04-18T06:07:46.635Z,49.90
2024-04-18T06:10:21.018Z,50.10
2024-04-18T06:12:51.604Z,50.10
2024-04-18T06:15:22.192Z,49.90
2024-04-18T06:17:52.731Z,50.00
2024-04-18T06:20:23.421Z,49.80
2024-04-18T06:22:53.851Z,49.90
2024-04-18T06:25:31.283Z,49.70
2024-04-18T06:28:01.867Z,49.80
2024-04-18T06:30:32.418Z,49.80
2024-04-18T06:33:03.020Z,49.80
2024-04-18T06:35:33.524Z,49.80
2024-04-18T06:38:03.973Z,49.80
2024-04-18T06:40:37.165Z,49.50
2024-04-18T06:43:07.885Z,49.60
2024-04-18T06:45:39.940Z,49.40
2024-04-18T06:48:11.905Z,49.30
2024-04-18T06:50:42.754Z,49.40
2024-04-18T06:53:13.578Z,49.50
2024-04-18T06:55:44.293Z,49.50
2024-04-18T06:58:15.429Z,49.50
2024-04-18T07:00:48.304Z,49.50
2024-04-18T07:03:19.673Z,49.50
2024-04-18T07:05:56.234Z,49.80
2024-04-18T07:08:25.791Z,49.60
2024-04-18T07:11:00.398Z,49.60
2024-04-18T07:13:33.393Z,49.60
2024-04-18T07:16:26.295Z,49.50
2024-04-18T07:18:56.796Z,49.30
2024-04-18T07:21:27.387Z,49.20
2024-04-18T07:24:18.023Z,49.20
2024-04-18T07:26:53.345Z,49.20
2024-04-18T07:29:25.497Z,49.20
2024-04-18T07:31:55.862Z,49.00
2024-04-18T07:34:26.613Z,49.00
2024-04-18T07:36:57.680Z,48.90
2024-04-18T07:39:29.029Z,49.00
2024-04-18T07:42:02.046Z,48.90
2024-04-18T07:44:32.511Z,49.00
2024-04-18T07:47:03.001Z,48.90
2024-04-18T07:49:33.693Z,49.00
2024-04-18T07:52:09.741Z,49.00
2024-04-18T07:54:47.003Z,49.10
2024-04-18T07:57:20.557Z,49.10
2024-04-18T07:59:52.490Z,49.10
2024-04-18T08:02:25.093Z,49.00
2024-04-18T08:05:00.370Z,49.10
2024-04-18T08:07:34.988Z,49.10
2024-04-18T08:10:11.598Z,49.30
2024-04-18T08:12:50.893Z,49.40
2024-04-18T08:18:17.594Z,49.20
2024-04-18T08:20:48.159Z,49.40
2024-04-18T08:23:21.737Z,49.40
2024-04-18T08:25:52.440Z,49.40
2024-04-18T08:28:25.472Z,49.60
2024-04-18T08:30:56.286Z,49.90
2024-04-18T08:33:26.806Z,49.80
2024-04-18T08:35:57.346Z,49.80
2024-04-18T08:38:27.782Z,50.00
2024-04-18T08:41:11.536Z,49.90
2024-04-18T08:43:46.999Z,49.90
2024-04-18T08:46:20.241Z,49.80
2024-04-18T08:48:51.059Z,49.80
2024-04-18T08:51:22.330Z,49.60
2024-04-18T08:53:52.850Z,49.50
2024-04-18T08:56:26.200Z,49.60
2024-04-18T08:58:59.627Z,49.70
2024-04-18T09:01:30.372Z,49.70
2024-04-18T09:04:02.203Z,49.70
2024-04-18T09:06:32.665Z,49.50
2024-04-18T09:09:05.853Z,49.40
2024-04-18T09:11:37.004Z,49.30
2024-04-18T09:14:10.456Z,49.20
2024-04-18T09:16:40.996Z,49.20
2024-04-18T09:19:13.557Z,49.30
2024-04-18T09:21:44.974Z,49.10
2024-04-18T09:24:15.525Z,49.00
2024-04-18T09:26:45.940Z,48.90
2024-04-18T09:29:19.046Z,48.80
2024-04-18T09:31:50.112Z,48.80
2024-04-18T09:34:21.056Z,48.90
2024-04-18T09:36:51.835Z,48.90
2024-04-18T09:39:29.390Z,49.00
2024-04-18T09:42:09.681Z,49.20
2024-04-18T09:44:47.952Z,49.20
2024-04-18T09:47:18.897Z,49.30
2024-04-18T09:49:51.166Z,49.30
2024-04-18T09:52:21.890Z,49.30
2024-04-18T09:54:53.527Z,49.30
2024-04-18T09:57:25.661Z,49.30
2024-04-18T09:59:59.675Z,49.30
2024-04-18T10:02:31.378Z,49.30
2024-04-18T10:05:01.959Z,49.10
2024-04-18T10:07:33.292Z,49.20
2024-04-18T10:10:05.314Z,49.40
2024-04-18T10:12:36.577Z,49.40
2024-04-18T10:15:11.623Z,49.40
2024-04-18T10:17:42.109Z,49.40
2024-04-18T10:20:13.014Z,49.40
2024-04-18T10:22:47.473Z,49.40
2024-04-18T10:25:22.949Z,49.60
2024-04-18T10:27:53.812Z,49.80
2024-04-18T10:30:29.215Z,49.90
2024-04-18T10:32:59.849Z,49.90
2024-04-18T10:35:30.892Z,49.80
2024-04-18T10:38:02.300Z,49.60
2024-04-18T10:40:30.446Z,49.40
2024-04-18T10:43:18.764Z,49.20
2024-04-18T10:45:53.748Z,48.80
2024-04-18T10:48:24.635Z,48.90
2024-04-18T10:50:55.734Z,48.80
2024-04-18T10:53:26.278Z,48.70
2024-04-18T10:55:56.807Z,48.70
2024-04-18T10:58:27.515Z,48.90
2024-04-18T11:01:04.035Z,48.80
2024-04-18T11:03:35.588Z,48.90
2024-04-18T11:06:06.731Z,48.90
2024-04-18T11:08:37.111Z,48.90
2024-04-18T11:11:08.462Z,48.80
2024-04-18T11:13:38.990Z,48.80
2024-04-18T11:16:12.583Z,48.80
2024-04-18T11:18:43.227Z,48.60
2024-04-18T11:21:14.275Z,48.60
2024-04-18T11:23:49.960Z,48.50
2024-04-18T11:26:22.680Z,48.50
2024-04-18T11:28:54.538Z,48.50
2024-04-18T11:31:27.649Z,48.50
2024-04-18T11:33:58.900Z,48.80
2024-04-18T11:36:29.628Z,48.80
2024-04-18T11:39:04.743Z,48.80
2024-04-18T11:41:35.843Z,49.20
2024-04-18T11:44:06.634Z,49.10
2024-04-18T11:46:39.895Z,49.00
2024-04-18T11:49:10.564Z,49.20
2024-04-18T11:51:42.088Z,49.30
2024-04-18T11:54:12.672Z,49.10
2024-04-18T11:56:43.405Z,48.80
2024-04-18T11:59:32.806Z,48.80
2024-04-18T12:02:05.791Z,49.10
2024-04-18T12:04:54.318Z,49.30
2024-04-18T12:07:24.741Z,49.40
2024-04-18T12:09:56.009Z,49.30
2024-04-18T12:12:26.979Z,49.20
2024-04-18T12:14:57.462Z,49.10
2024-04-18T12:17:33.756Z,48.90
2024-04-18T12:20:23.934Z,49.00
2024-04-18T12:22:54.622Z,48.90
2024-04-18T12:25:25.012Z,48.90
2024-04-18T12:27:55.416Z,48.90
2024-04-18T12:30:35.142Z,48.90
2024-04-18T12:33:26.580Z,48.70
2024-04-18T12:35:57.425Z,48.50
2024-04-18T12:38:27.830Z,48.50
2024-04-18T12:41:05.920Z,48.50
2024-04-18T12:43:38.056Z,48.30
2024-04-18T12:46:27.565Z,48.20
2024-04-18T12:49:01.062Z,48.10
2024-04-18T12:51:31.943Z,47.90
2024-04-18T12:54:02.418Z,48.00
2024-04-18T12:56:51.396Z,47.90
2024-04-18T12:59:25.786Z,48.10
2024-04-18T13:01:56.728Z,48.10
2024-04-18T13:04:32.555Z,47.80
2024-04-18T13:07:03.288Z,47.50
2024-04-18T13:09:34.458Z,47.70
2024-04-18T13:12:05.812Z,47.60
2024-04-18T13:14:55.090Z,47.40
2024-04-18T13:17:25.500Z,47.10
2024-04-18T13:19:59.736Z,46.80
2024-04-18T13:22:30.133Z,46.20
2024-04-18T13:25:01.131Z,46.50
2024-04-18T13:27:32.755Z,46.80
2024-04-18T13:30:07.812Z,47.10
2024-04-18T13:32:39.759Z,47.40
2024-04-18T13:35:13.629Z,47.50
2024-04-18T13:37:44.139Z,47.50
2024-04-18T13:40:21.714Z,47.50
2024-04-18T13:43:03.005Z,47.20
2024-04-18T13:45:34.686Z,47.10
2024-04-18T13:48:05.891Z,47.00
2024-04-18T13:50:49.295Z,46.90
2024-04-18T13:53:19.894Z,46.50
2024-04-18T13:55:51.987Z,46.80
2024-04-18T13:58:25.290Z,46.80
2024-04-18T14:01:02.939Z,46.80
2024-04-18T14:03:34.638Z,46.70
2024-04-18T14:06:12.920Z,46.80
2024-04-18T14:08:45.808Z,46.70
2024-04-18T14:11:34.847Z,46.70
2024-04-18T14:14:31.205Z,46.90
2024-04-18T14:17:29.191Z,47.10
2024-04-18T14:20:07.054Z,47.10
2024-04-18T14:22:54.730Z,47.00
2024-04-18T14:25:26.978Z,47.10
2024-04-18T14:28:28.087Z,47.20
2024-04-18T14:31:21.844Z,47.30
2024-04-18T14:33:53.868Z,47.30
2024-04-18T14:36:24.477Z,47.30
2024-04-18T14:38:57.527Z,47.20
2024-04-18T14:41:27.927Z,47.20
2024-04-18T14:44:00.722Z,47.30
2024-04-18T14:46:31.985Z,48.10
2024-04-18T14:49:22.687Z,47.40
2024-04-18T14:51:58.912Z,47.40
2024-04-18T14:54:32.166Z,47.40
2024-04-18T14:57:02.665Z,47.40
2024-04-18T14:59:41.947Z,47.50
2024-04-18T15:02:12.414Z,47.50
2024-04-18T15:05:01.307Z,47.50
2024-04-18T15:07:31.786Z,47.40
2024-04-18T15:10:02.297Z,47.10
2024-04-18T15:12:53.193Z,47.40
2024-04-18T15:15:27.779Z,47.30
2024-04-18T15:17:58.252Z,47.50
2024-04-18T15:20:28.996Z,47.60
2024-04-18T15:23:11.556Z,47.80
2024-04-18T15:25:45.053Z,48.10
2024-04-18T15:28:16.838Z,47.50
2024-04-18T15:30:47.469Z,47.50
2024-04-18T15:33:26.687Z,47.50
2024-04-18T15:36:04.146Z,47.60
2024-04-18T15:38:34.571Z,47.50
2024-04-18T15:41:19.877Z,47.60
2024-04-18T15:43:50.311Z,47.50
2024-04-18T15:46:39.100Z,47.30
2024-04-18T15:49:12.762Z,47.10
2024-04-18T15:51:43.850Z,47.10
2024-04-18T15:54:14.294Z,46.90
2024-04-18T15:56:47.495Z,46.80
2024-04-18T15:59:36.292Z,46.50
2024-04-18T16:02:10.063Z,46.60
2024-04-18T16:04:47.259Z,46.60
2024-04-18T16:07:18.326Z,46.50
2024-04-18T16:10:09.100Z,46.60
2024-04-18T16:12:58.445Z,46.80
2024-04-18T16:15:29.055Z,47.00
2024-04-18T16:18:05.508Z,47.10
2024-04-18T16:24:28.693Z,47.10
2024-04-18T16:27:00.686Z,47.10
2024-04-18T16:29:36.133Z,47.60
2024-04-18T16:32:26.746Z,47.10
2024-04-18T16:35:04.256Z,47.20
2024-04-18T16:37:39.196Z,47.10
2024-04-18T16:40:19.196Z,47.20
2024-04-18T16:43:07.096Z,47.30
2024-04-18T16:45:59.034Z,47.30
2024-04-18T16:48:35.585Z,47.40
2024-04-18T16:51:08.612Z,47.40
2024-04-18T16:53:57.212Z,47.40
2024-04-18T16:56:40.522Z,47.40
2024-04-18T16:59:15.890Z,47.50
2024-04-18T17:02:08.683Z,47.40
2024-04-18T17:05:24.220Z,47.20
2024-04-18T17:07:42.030Z,47.30
2024-04-18T17:10:25.681Z,47.30
2024-04-18T17:13:15.231Z,47.20
2024-04-18T17:16:06.813Z,47.10
2024-04-18T17:18:39.988Z,47.20
2024-04-18T17:21:10.517Z,47.40
2024-04-18T17:23:41.155Z,47.40
2024-04-18T17:26:11.541Z,47.50
2024-04-18T17:28:41.998Z,47.50
2024-04-18T17:31:12.447Z,47.70
2024-04-18T17:33:45.524Z,47.70
2024-04-18T17:36:16.398Z,47.90
2024-04-18T17:38:51.053Z,47.90
2024-04-18T17:41:34.497Z,47.80
2024-04-18T17:44:23.307Z,47.60
2024-04-18T17:46:56.766Z,47.40
2024-04-18T17:49:30.242Z,47.30
2024-04-18T17:52:00.821Z,47.10
2024-04-18T17:54:31.545Z,47.10
2024-04-18T17:57:02.031Z,47.20
2024-04-18T17:59:34.598Z,47.30
2024-04-18T18:02:05.904Z,47.20
2024-04-18T18:04:38.965Z,47.10
2024-04-18T18:07:09.416Z,47.00
2024-04-18T18:09:43.054Z,47.20
2024-04-18T18:12:14.422Z,47.30
2024-04-18T18:14:44.836Z,47.30
2024-04-18T18:17:15.309Z,47.40
2024-04-18T18:19:48.488Z,47.20
2024-04-18T18:22:18.957Z,47.30
2024-04-18T18:24:49.864Z,47.20
2024-04-18T18:27:20.892Z,47.30
2024-04-18T18:29:51.231Z,47.20
2024-04-18T18:32:23.139Z,47.20
2024-04-18T18:34:53.740Z,47.00
2024-04-18T18:37:31.917Z,47.00
2024-04-18T18:40:17.977Z,47.00
2024-04-18T18:42:48.371Z,47.10
2024-04-18T18:45:16.487Z,47.00
2024-04-18T18:47:47.351Z,47.00
2024-04-18T18:50:24.662Z,47.10
2024-04-18T18:52:55.080Z,47.00
2024-04-18T18:55:39.266Z,47.00
2024-04-18T18:58:09.696Z,47.30
2024-04-18T19:00:37.614Z,47.50
2024-04-18T19:03:14.535Z,47.40
2024-04-18T19:05:50.729Z,47.50
2024-04-18T19:08:21.372Z,47.60
2024-04-18T19:10:55.822Z,47.50
2024-04-18T19:13:26.424Z,47.60
2024-04-18T19:15:57.406Z,47.70
2024-04-18T19:18:28.451Z,47.80
2024-04-18T19:20:58.883Z,47.80
2024-04-18T19:23:39.932Z,47.80
2024-04-18T19:26:10.330Z,48.50
2024-04-18T19:28:40.922Z,47.80
2024-04-18T19:31:11.129Z,48.00
2024-04-18T19:33:41.684Z,48.10
2024-04-18T19:36:13.183Z,48.00
2024-04-18T19:38:45.891Z,48.10
2024-04-18T19:41:28.607Z,48.10
2024-04-18T19:43:59.159Z,48.10
2024-04-18T19:46:27.027Z,48.00
2024-04-18T19:49:13.767Z,48.10
2024-04-18T19:52:03.037Z,48.00
2024-04-18T19:54:35.851Z,48.00
2024-04-18T19:57:04.506Z,47.80
2024-04-18T19:59:36.460Z,47.80
2024-04-18T20:02:04.957Z,47.80
2024-04-18T20:04:35.575Z,47.70
2024-04-18T20:07:06.282Z,47.70
2024-04-18T20:09:36.782Z,47.70
2024-04-18T20:12:07.640Z,47.70
2024-04-18T20:14:38.304Z,47.80
2024-04-18T20:17:06.367Z,48.00
2024-04-18T20:19:36.853Z,48.00
2024-04-18T20:22:07.512Z,47.90
2024-04-18T20:24:38.408Z,47.90
2024-04-18T20:27:26.554Z,47.70
2024-04-18T20:29:57.634Z,47.70
2024-04-18T20:32:26.442Z,47.70
2024-04-18T20:34:57.861Z,47.80
2024-04-18T20:37:28.929Z,47.70
2024-04-18T20:39:59.918Z,47.80
2024-04-18T20:42:28.071Z,47.80
2024-04-18T20:45:06.207Z,47.80
2024-04-18T20:47:34.324Z,47.90
2024-04-18T20:50:09.248Z,47.90
2024-04-18T20:52:39.906Z,47.80
2024-04-18T20:55:11.616Z,47.90
2024-04-18T20:57:39.470Z,47.70
2024-04-18T21:00:11.943Z,47.80
2024-04-18T21:02:39.965Z,47.80
2024-04-18T21:05:11.198Z,47.90
2024-04-18T21:07:41.976Z,47.80
2024-04-18T21:10:12.580Z,47.80
2024-04-18T21:12:40.580Z,47.80
2024-04-18T21:15:11.544Z,47.90
2024-04-18T21:17:42.194Z,47.90
2024-04-18T21:20:10.587Z,48.00
2024-04-18T21:22:43.779Z,47.90
2024-04-18T21:25:12.559Z,47.80
2024-04-18T21:27:43.122Z,47.90
2024-04-18T21:30:12.087Z,47.90
2024-04-18T21:32:42.685Z,47.80
2024-04-18T21:35:10.869Z,47.70
2024-04-18T21:37:44.005Z,47.70
2024-04-18T21:40:12.413Z,47.70
2024-04-18T21:42:42.937Z,47.70
2024-04-18T21:45:10.911Z,47.70
2024-04-18T21:47:41.529Z,47.80
2024-04-18T21:50:10.253Z,48.00
2024-04-18T21:52:43.435Z,48.00
2024-04-18T21:55:13.735Z,47.90
2024-04-18T21:57:45.019Z,47.90
2024-04-18T22:00:13.741Z,47.90
2024-04-18T22:03:00.673Z,47.90
2024-04-18T22:05:28.675Z,47.90
2024-04-18T22:08:02.402Z,48.00
2024-04-18T22:10:30.310Z,48.00
2024-04-18T22:13:01.095Z,48.00
2024-04-18T22:15:29.284Z,47.90
2024-04-18T22:18:02.039Z,48.00
2024-04-18T22:20:30.034Z,48.00
2024-04-18T22:23:21.543Z,47.90
2024-04-18T22:25:49.485Z,47.80
2024-04-18T22:28:20.332Z,47.70
2024-04-18T22:30:56.894Z,48.40
2024-04-18T22:33:28.667Z,47.80
2024-04-18T22:35:57.117Z,47.70
2024-04-18T22:38:30.428Z,47.70
2024-04-18T22:40:58.303Z,47.60
2024-04-18T22:43:29.655Z,47.60
2024-04-18T22:45:57.601Z,47.60
2024-04-18T22:48:28.319Z,47.60
2024-04-18T22:50:56.462Z,47.70
2024-04-18T22:53:29.959Z,47.50
2024-04-18T22:55:58.388Z,47.70
2024-04-18T22:58:28.990Z,47.80
2024-04-18T23:01:06.371Z,47.90
2024-04-18T23:03:37.305Z,48.60
2024-04-18T23:06:14.233Z,47.90
2024-04-18T23:08:47.829Z,47.80
2024-04-18T23:11:17.052Z,47.70
2024-04-18T23:13:48.682Z,47.60
2024-04-18T23:16:16.613Z,47.60
2024-04-18T23:18:47.246Z,47.60
2024-04-18T23:21:15.266Z,47.80
2024-04-18T23:23:48.668Z,47.90
2024-04-18T23:26:16.612Z,47.90
2024-04-18T23:28:47.263Z,47.90
2024-04-18T23:31:15.177Z,48.00
2024-04-18T23:33:45.684Z,48.00
2024-04-18T23:36:14.454Z,48.00
2024-04-18T23:38:47.614Z,47.90
2024-04-18T23:41:15.473Z,47.80
2024-04-18T23:43:46.023Z,47.70
2024-04-18T23:46:13.926Z,47.80
2024-04-18T23:48:44.720Z,47.80
2024-04-18T23:51:12.808Z,47.80
2024-04-18T23:53:43.432Z,47.80
2024-04-18T23:56:13.983Z,47.90
2024-04-18T23:58:45.077Z,48.00
